Time;durP1;ratioP1;P1;durP2;ratioP2;P2;SDS_P1;SDS_P2;PMS_P1;PMS_P2;Temp;Humidity;BMP_temperature;BMP_pressure;BME280_temperature;BME280_humidity;BME280_pressure;Samples;Min_cycle;Max_cycle;Signal;HPM_P1;HPM_P2
2023/11/04 00:02:20;;;;;;;73.80;38.50;;;;;;;18.96;55.94;98988.36;108304;1254;72357;-65
2023/11/04 00:07:26;;;;;;;74.40;38.70;;;;;;;16.52;63.91;98986.64;104971;1293;600100;-65
2023/11/04 00:09:53;;;;;;;79.00;39.80;;;;;;;17.48;61.07;98984.11;107371;1263;61578;-66
2023/11/04 00:12:23;;;;;;;83.40;42.30;;;;;;;17.78;60.18;98979.13;107305;1264;59494;-64
2023/11/04 00:14:51;;;;;;;80.90;42.00;;;;;;;17.74;60.44;98966.45;107284;1265;70941;-65
2023/11/04 00:17:19;;;;;;;79.20;43.60;;;;;;;17.54;60.94;98958.47;107274;1266;70312;-64
2023/11/04 00:19:46;;;;;;;80.70;40.10;;;;;;;17.71;60.58;98954.84;107263;1269;72729;-64
2023/11/04 00:22:14;;;;;;;78.40;40.60;;;;;;;17.73;60.54;98943.48;107181;1268;175069;-65
2023/11/04 00:24:41;;;;;;;80.60;38.70;;;;;;;17.92;60.10;98941.38;107463;1264;60017;-65
2023/11/04 00:27:09;;;;;;;83.70;41.90;;;;;;;17.97;60.13;98933.73;107380;1268;72273;-65
2023/11/04 00:29:37;;;;;;;83.60;40.90;;;;;;;18.14;59.58;98926.80;107419;1264;70203;-65
2023/11/04 00:32:05;;;;;;;96.80;44.40;;;;;;;18.02;59.93;98931.95;107317;1267;72635;-66
2023/11/04 00:34:33;;;;;;;80.60;37.40;;;;;;;17.78;60.84;98921.23;107446;1264;60400;-65
2023/11/04 00:37:00;;;;;;;80.30;39.50;;;;;;;17.81;60.84;98927.94;107404;1266;59550;-66
2023/11/04 00:39:28;;;;;;;78.60;40.00;;;;;;;17.95;60.51;98925.47;107310;1269;71757;-65
2023/11/04 00:41:55;;;;;;;91.10;43.20;;;;;;;18.12;60.01;98920.95;107307;1264;70186;-66
2023/11/04 00:44:23;;;;;;;93.00;45.10;;;;;;;18.18;59.94;98920.09;107317;1264;72596;-66
2023/11/04 00:46:50;;;;;;;99.00;45.40;;;;;;;18.26;59.72;98915.19;107242;1263;61747;-67
2023/11/04 00:49:18;;;;;;;72.20;35.80;;;;;;;18.19;60.07;98918.77;107313;1263;59514;-65
2023/11/04 00:51:45;;;;;;;96.00;42.60;;;;;;;18.11;60.33;98910.95;107303;1264;72035;-66
2023/11/04 00:54:13;;;;;;;92.10;43.10;;;;;;;18.31;59.86;98905.60;107320;1264;70516;-65
2023/11/04 00:56:40;;;;;;;78.30;39.30;;;;;;;18.42;59.57;98914.23;107255;1268;72684;-65
2023/11/04 00:59:08;;;;;;;89.40;41.20;;;;;;;18.44;59.53;98921.76;107302;1264;61720;-66
2023/11/04 01:01:35;;;;;;;74.30;36.30;;;;;;;18.65;59.11;98923.43;107281;1264;59502;-66
2023/11/04 01:04:03;;;;;;;89.60;42.30;;;;;;;18.85;58.44;98922.20;107339;1264;73142;-66
2023/11/04 01:06:30;;;;;;;88.50;43.10;;;;;;;18.53;59.33;98922.13;107219;1270;70169;-65
2023/11/04 01:08:58;;;;;;;92.50;45.20;;;;;;;18.52;59.28;98916.38;107251;1264;72734;-66
2023/11/04 01:11:26;;;;;;;86.30;40.60;;;;;;;18.30;59.97;98912.00;107350;1263;61664;-66
2023/11/04 01:13:54;;;;;;;102.70;45.60;;;;;;;18.41;59.78;98915.42;107277;1269;60864;-65
2023/11/04 01:16:22;;;;;;;90.60;44.00;;;;;;;18.45;59.73;98908.85;107371;1264;72128;-65
2023/11/04 01:18:50;;;;;;;101.30;47.60;;;;;;;18.59;59.40;98892.65;107329;1264;70324;-66
2023/11/04 01:21:17;;;;;;;84.50;43.40;;;;;;;18.45;59.80;98882.58;107290;1264;72685;-67
2023/11/04 01:23:44;;;;;;;101.50;48.70;;;;;;;18.45;59.77;98869.20;107244;1270;61127;-66
2023/11/04 01:26:12;;;;;;;88.40;43.00;;;;;;;18.50;59.72;98861.46;107343;1264;60442;-66
2023/11/04 01:28:39;;;;;;;93.60;45.30;;;;;;;18.43;59.94;98874.69;107137;1270;71916;-66
2023/11/04 01:31:07;;;;;;;101.60;48.40;;;;;;;18.39;60.14;98882.59;107312;1264;69954;-66
2023/11/04 01:33:34;;;;;;;82.30;40.10;;;;;;;18.46;60.02;98880.33;107254;1269;72453;-66
2023/11/04 01:36:03;;;;;;;83.30;40.40;;;;;;;18.35;60.42;98902.11;107341;1264;60405;-66
2023/11/04 01:38:31;;;;;;;94.20;44.70;;;;;;;18.20;61.02;98922.63;107383;1267;60249;-65
2023/11/04 01:40:58;;;;;;;92.90;43.50;;;;;;;18.28;60.82;98923.89;107347;1264;73091;-67
2023/11/04 01:43:26;;;;;;;93.10;48.10;;;;;;;18.26;60.82;98919.59;107315;1264;68706;-67
2023/11/04 01:46:19;;;;;;;87.40;43.20;;;;;;;18.44;60.52;98928.13;107407;1268;72465;-66
2023/11/04 01:48:46;;;;;;;112.10;53.70;;;;;;;18.25;60.97;98941.65;107407;1260;60401;-66
2023/11/04 01:51:14;;;;;;;91.50;49.00;;;;;;;18.52;60.30;98933.30;107369;1261;59501;-66
2023/11/04 01:53:47;;;;;;;103.20;51.10;;;;;;;18.54;60.25;98938.25;107391;1263;73173;-67
2023/11/04 01:56:18;;;;;;;96.20;46.70;;;;;;;18.56;60.10;98924.42;107487;1260;70372;-68
2023/11/04 01:58:46;;;;;;;110.70;53.00;;;;;;;18.67;59.94;98903.34;107410;1264;71518;-66
2023/11/04 02:01:14;;;;;;;114.30;51.60;;;;;;;18.86;59.30;98907.29;107348;1261;61702;-66
2023/11/04 02:03:41;;;;;;;104.10;47.80;;;;;;;18.78;59.57;98913.95;107294;1263;59286;-65
2023/11/04 02:06:09;;;;;;;105.50;52.70;;;;;;;18.71;59.91;98917.53;107464;1264;73293;-65
2023/11/04 02:08:36;;;;;;;98.20;47.70;;;;;;;18.90;59.05;98922.27;107283;1264;68788;-65
2023/11/04 02:11:04;;;;;;;115.60;55.00;;;;;;;18.94;59.17;98935.26;107481;1265;72607;-67
2023/11/04 02:13:31;;;;;;;123.00;55.80;;;;;;;18.86;59.27;98943.77;107344;1263;61651;-66
2023/11/04 02:15:59;;;;;;;116.70;55.30;;;;;;;19.03;58.90;98953.96;107396;1264;60083;-66
2023/11/04 02:18:27;;;;;;;93.50;46.20;;;;;;;18.91;59.21;98956.17;107490;1264;71834;-67
2023/11/04 02:20:59;;;;;;;110.10;51.40;;;;;;;18.86;59.19;98953.92;107359;1263;70317;-67
2023/11/04 02:23:26;;;;;;;114.00;51.00;;;;;;;19.02;58.64;98960.17;107397;1267;72942;-66
2023/11/04 02:25:54;;;;;;;97.70;46.30;;;;;;;18.38;60.63;98966.28;107437;1263;61676;-66
2023/11/04 02:28:22;;;;;;;102.30;49.40;;;;;;;18.67;59.90;98968.92;107399;1264;59976;-65
2023/11/04 02:30:49;;;;;;;111.40;49.30;;;;;;;18.75;59.79;98966.62;107419;1264;73060;-67
2023/11/04 02:33:17;;;;;;;99.90;45.30;;;;;;;18.78;59.75;98957.48;107440;1264;68721;-65
2023/11/04 02:35:45;;;;;;;108.80;49.60;;;;;;;19.04;58.95;98955.45;107393;1264;72669;-66
2023/11/04 02:38:13;;;;;;;96.80;45.80;;;;;;;19.35;58.16;98951.74;107395;1266;60420;-66
2023/11/04 02:40:40;;;;;;;101.10;49.30;;;;;;;19.40;57.81;98945.43;107380;1263;60174;-65
2023/11/04 02:43:07;;;;;;;96.10;44.40;;;;;;;19.20;58.37;98946.77;107394;1263;73040;-64
2023/11/04 02:45:35;;;;;;;111.30;50.30;;;;;;;18.85;59.63;98959.56;107303;1268;69128;-66
2023/11/04 02:48:03;;;;;;;105.30;47.40;;;;;;;18.98;59.28;98962.41;107292;1267;72449;-67
2023/11/04 02:50:30;;;;;;;98.20;46.10;;;;;;;19.08;59.35;98953.47;107469;1263;60683;-66
2023/11/04 02:52:57;;;;;;;111.00;48.00;;;;;;;19.60;57.71;98948.98;107424;1263;59673;-65
2023/11/04 02:55:25;;;;;;;105.30;42.70;;;;;;;19.45;57.91;98971.86;107489;1264;72142;-66
2023/11/04 02:57:52;;;;;;;108.70;46.50;;;;;;;18.95;59.59;98971.24;107439;1264;69820;-65
2023/11/04 03:00:20;;;;;;;125.50;52.00;;;;;;;18.92;59.89;98972.40;107489;1264;72449;-66
2023/11/04 03:02:47;;;;;;;98.60;42.80;;;;;;;19.07;59.56;98974.64;107407;1264;61805;-65
2023/11/04 03:05:15;;;;;;;99.70;44.90;;;;;;;18.99;59.88;98972.80;107521;1261;59555;-65
2023/11/04 03:07:58;;;;;;;111.70;46.80;;;;;;;19.16;59.23;98972.60;107482;1264;73033;-66
2023/11/04 03:10:26;;;;;;;106.80;46.70;;;;;;;19.05;59.68;98974.98;107387;1263;69453;-66
2023/11/04 03:12:54;;;;;;;103.30;45.00;;;;;;;18.93;60.17;98982.13;107341;1264;72657;-67
2023/11/04 03:15:21;;;;;;;123.40;51.90;;;;;;;18.81;60.81;98989.58;107354;1264;61750;-65
2023/11/04 03:17:49;;;;;;;117.20;49.70;;;;;;;18.95;60.40;98972.65;107718;1256;59685;-65
2023/11/04 03:20:16;;;;;;;113.70;50.30;;;;;;;19.17;59.65;98959.70;107755;1257;73014;-64
2023/11/04 03:22:44;;;;;;;122.80;53.70;;;;;;;19.07;59.83;98961.55;107785;1262;70405;-66
2023/11/04 03:25:12;;;;;;;99.30;49.00;;;;;;;19.06;60.03;98953.58;107772;1257;72762;-65
2023/11/04 03:27:39;;;;;;;118.50;52.10;;;;;;;19.22;59.54;98946.70;107623;1262;60415;-67
2023/11/04 03:30:08;;;;;;;107.70;48.60;;;;;;;19.50;58.85;98935.44;107737;1257;59566;-66
2023/11/04 03:32:35;;;;;;;115.90;48.20;;;;;;;19.59;58.35;98943.81;107734;1256;73057;-66
2023/11/04 03:35:04;;;;;;;129.80;53.70;;;;;;;19.66;58.27;98947.45;107732;1257;70171;-66
2023/11/04 03:37:34;;;;;;;121.40;51.00;;;;;;;19.97;57.39;98937.09;107682;1256;72668;-66
2023/11/04 03:40:01;;;;;;;124.70;51.20;;;;;;;20.08;56.95;98934.14;107708;1257;61124;-66
2023/11/04 03:42:29;;;;;;;122.70;49.70;;;;;;;19.98;57.15;98945.94;107713;1256;59516;-65
2023/11/04 03:44:56;;;;;;;107.40;46.30;;;;;;;19.85;57.73;98950.94;107788;1256;73178;-67
2023/11/04 03:47:24;;;;;;;111.50;48.90;;;;;;;19.94;57.55;98949.83;107591;1256;69973;-66
2023/11/04 03:49:52;;;;;;;107.10;45.90;;;;;;;20.24;56.58;98933.45;107673;1261;72718;-66
2023/11/04 03:52:19;;;;;;;107.60;47.10;;;;;;;20.26;56.39;98930.83;107710;1256;61672;-67
2023/11/04 03:54:47;;;;;;;123.10;50.70;;;;;;;20.15;56.76;98926.45;107692;1257;59991;-67
2023/11/04 03:57:14;;;;;;;108.30;44.20;;;;;;;20.15;56.65;98924.68;107723;1257;73066;-67
2023/11/04 03:59:42;;;;;;;129.70;50.40;;;;;;;20.21;56.47;98921.60;107698;1256;70508;-67
2023/11/04 04:02:10;;;;;;;102.30;45.90;;;;;;;20.11;56.79;98920.14;107695;1257;72624;-66
2023/11/04 04:04:37;;;;;;;119.70;49.20;;;;;;;20.24;56.53;98919.71;107669;1256;61666;-65
2023/11/04 04:07:05;;;;;;;122.20;47.80;;;;;;;20.24;56.61;98913.64;107784;1257;59494;-66
2023/11/04 04:09:33;;;;;;;88.90;39.20;;;;;;;20.38;56.46;98904.27;108080;1253;71900;-65
2023/11/04 04:12:00;;;;;;;126.20;50.80;;;;;;;20.37;56.37;98901.70;108052;1253;68631;-65
2023/11/04 04:14:27;;;;;;;101.10;44.10;;;;;;;20.36;56.40;98909.33;108028;1253;72698;-66
2023/11/04 04:16:55;;;;;;;112.50;47.40;;;;;;;20.41;56.29;98911.48;108054;1253;60513;-66
2023/11/04 04:19:22;;;;;;;100.00;43.60;;;;;;;20.46;56.11;98907.44;108062;1253;60105;-65
2023/11/04 04:21:50;;;;;;;119.30;47.40;;;;;;;20.43;56.39;98907.38;108125;1254;74267;-65
2023/11/04 04:24:18;;;;;;;111.00;44.20;;;;;;;20.39;56.55;98905.32;108079;1253;69305;-65
2023/11/04 04:26:47;;;;;;;139.50;51.20;;;;;;;20.38;56.61;98905.17;108104;1252;71870;-67
2023/11/04 04:29:14;;;;;;;118.20;47.90;;;;;;;20.58;56.24;98899.01;108228;1253;60742;-67
2023/11/04 04:31:42;;;;;;;127.70;49.10;;;;;;;20.61;56.25;98899.23;108037;1252;61255;-66
2023/11/04 04:34:10;;;;;;;102.60;44.30;;;;;;;20.74;55.84;98897.75;108061;1253;72587;-67
2023/11/04 04:36:38;;;;;;;121.80;48.30;;;;;;;20.78;55.67;98905.80;108038;1253;70630;-66
2023/11/04 04:39:07;;;;;;;113.40;47.70;;;;;;;20.75;55.85;98911.23;107949;1253;72989;-66
2023/11/04 04:41:34;;;;;;;113.80;49.20;;;;;;;20.88;55.47;98910.48;108065;1253;61678;-66
2023/11/04 04:44:02;;;;;;;107.40;43.20;;;;;;;20.77;55.68;98907.47;108059;1253;60958;-67
2023/11/04 04:46:29;;;;;;;119.80;47.30;;;;;;;20.51;56.48;98898.08;108122;1253;73796;-67
2023/11/04 04:48:56;;;;;;;110.10;44.80;;;;;;;20.55;56.41;98895.50;108081;1253;69923;-65
2023/11/04 04:51:24;;;;;;;111.80;47.20;;;;;;;20.53;56.65;98902.64;108064;1253;72740;-66
2023/11/04 04:53:51;;;;;;;92.80;40.30;;;;;;;20.71;56.25;98905.41;108110;1253;60642;-66
2023/11/04 04:56:19;;;;;;;110.20;43.80;;;;;;;20.66;56.21;98898.77;108091;1253;60460;-66
2023/11/04 04:58:46;;;;;;;111.80;46.40;;;;;;;20.83;55.87;98895.63;108043;1253;73958;-66
2023/11/04 05:01:20;;;;;;;116.80;48.90;;;;;;;20.72;56.30;98892.84;108042;1253;70103;-65
2023/11/04 05:03:48;;;;;;;106.10;45.50;;;;;;;20.74;56.18;98888.88;108034;1258;71675;-65
2023/11/04 05:06:15;;;;;;;112.00;48.00;;;;;;;20.71;56.33;98885.84;108018;1253;60828;-66
2023/11/04 05:08:43;;;;;;;127.40;50.80;;;;;;;20.56;56.68;98878.71;108030;1253;59214;-66
2023/11/04 05:11:10;;;;;;;135.30;52.30;;;;;;;20.61;56.57;98884.94;108045;1258;73388;-66
2023/11/04 05:13:38;;;;;;;98.10;44.20;;;;;;;20.50;56.82;98891.35;107972;1254;68678;-65
2023/11/04 05:16:05;;;;;;;113.50;46.30;;;;;;;20.31;57.39;98894.27;107995;1253;72438;-67
2023/11/04 05:18:33;;;;;;;100.80;43.50;;;;;;;20.47;57.24;98896.96;107979;1254;61749;-67
2023/11/04 05:21:03;;;;;;;110.40;49.50;;;;;;;20.48;57.16;98894.56;108039;1253;60332;-66
2023/11/04 05:23:34;;;;;;;119.20;48.60;;;;;;;20.33;57.45;98894.31;107950;1253;74873;-66
2023/11/04 05:26:02;;;;;;;96.90;43.50;;;;;;;20.04;58.19;98892.02;108065;1253;70733;-66
2023/11/04 05:28:31;;;;;;;142.20;52.70;;;;;;;19.96;58.70;98897.11;108057;1253;72671;-65
2023/11/04 05:31:00;;;;;;;131.20;50.80;;;;;;;19.38;60.40;98903.41;108124;1253;60964;-66
2023/11/04 05:33:27;;;;;;;121.00;45.90;;;;;;;19.10;61.42;98909.00;108038;1253;59997;-64
2023/11/04 05:35:55;;;;;;;117.80;46.30;;;;;;;19.35;60.77;98909.75;108092;1253;73059;-67
2023/11/04 05:38:27;;;;;;;107.60;45.50;;;;;;;19.44;61.00;98912.48;108156;1253;69530;-67
2023/11/04 05:40:54;;;;;;;138.00;52.20;;;;;;;19.40;61.10;98916.64;108157;1253;71469;-66
2023/11/04 05:43:22;;;;;;;124.70;50.10;;;;;;;19.62;60.70;98915.97;108089;1253;60383;-66
2023/11/04 05:45:49;;;;;;;121.90;48.60;;;;;;;19.75;60.22;98915.71;108061;1252;60277;-66
2023/11/04 05:48:19;;;;;;;115.20;48.90;;;;;;;19.75;60.12;98917.09;108098;1253;73828;-66
2023/11/04 05:50:47;;;;;;;122.40;48.80;;;;;;;19.70;60.67;98916.49;108078;1253;69307;-66
2023/11/04 05:53:16;;;;;;;128.10;49.40;;;;;;;19.92;59.97;98907.47;108074;1253;73386;-66
2023/11/04 05:55:43;;;;;;;119.90;48.30;;;;;;;19.85;60.29;98901.17;108070;1253;60402;-66
2023/11/04 05:58:11;;;;;;;92.90;39.10;;;;;;;19.68;60.95;98910.08;108116;1257;59493;-66
2023/11/04 06:00:39;;;;;;;112.20;44.70;;;;;;;19.54;61.48;98909.97;108196;1253;73855;-66
2023/11/04 06:03:08;;;;;;;96.60;40.70;;;;;;;19.64;61.43;98904.75;108189;1253;69660;-67
2023/11/04 06:05:36;;;;;;;107.10;42.80;;;;;;;19.41;62.24;98903.83;108163;1253;71582;-67
2023/11/04 06:08:04;;;;;;;83.50;37.00;;;;;;;19.68;61.62;98901.03;108242;1251;61649;-67
2023/11/04 06:10:31;;;;;;;99.40;41.70;;;;;;;19.57;61.91;98898.50;108077;1251;60297;-65
2023/11/04 06:12:59;;;;;;;79.80;37.40;;;;;;;19.76;61.31;98903.13;108100;1257;72626;-66
2023/11/04 06:15:27;;;;;;;77.70;36.00;;;;;;;19.75;61.32;98899.84;108078;1251;70308;-67
2023/11/04 06:17:54;;;;;;;85.60;37.90;;;;;;;19.80;61.24;98898.44;108163;1251;71456;-66
2023/11/04 06:20:22;;;;;;;84.70;36.60;;;;;;;19.67;61.57;98904.25;108097;1251;60417;-66
2023/11/04 06:22:49;;;;;;;75.10;33.80;;;;;;;19.72;61.57;98910.43;108079;1255;59286;-66
2023/11/04 06:25:16;;;;;;;72.90;33.30;;;;;;;19.68;61.70;98923.41;108069;1251;73793;-66
2023/11/04 06:27:44;;;;;;;67.20;32.20;;;;;;;19.66;61.70;98917.21;108095;1251;71918;-66
2023/11/04 06:30:13;;;;;;;78.80;34.00;;;;;;;19.55;62.42;98917.73;108069;1251;72442;-66
2023/11/04 06:32:40;;;;;;;83.30;36.20;;;;;;;19.62;62.00;98918.33;108044;1251;60451;-66
2023/11/04 06:35:08;;;;;;;72.10;34.70;;;;;;;19.76;61.61;98913.79;108055;1251;59199;-66
2023/11/04 06:37:37;;;;;;;75.50;33.30;;;;;;;19.60;62.12;98907.95;108177;1251;73751;-66
2023/11/04 06:40:08;;;;;;;73.20;31.50;;;;;;;19.79;61.74;98908.77;108138;1251;70120;-66
2023/11/04 06:42:37;;;;;;;73.10;34.10;;;;;;;19.82;61.54;98908.57;108197;1253;71989;-67
2023/11/04 06:45:05;;;;;;;72.30;33.60;;;;;;;19.77;61.83;98914.55;108074;1257;60470;-66
2023/11/04 06:47:32;;;;;;;79.80;34.60;;;;;;;19.98;61.21;98913.88;108054;1251;60315;-67
2023/11/04 06:50:01;;;;;;;60.50;31.80;;;;;;;20.02;61.05;98904.80;108043;1251;73134;-67
2023/11/04 06:52:29;;;;;;;73.80;33.30;;;;;;;20.12;60.83;98896.64;108008;1251;70360;-66
2023/11/04 06:54:57;;;;;;;74.60;34.30;;;;;;;20.02;61.07;98900.98;108057;1253;70439;-68
2023/11/04 06:57:25;;;;;;;64.40;31.70;;;;;;;20.09;61.11;98903.18;108255;1253;60401;-66
2023/11/04 06:59:52;;;;;;;73.40;34.30;;;;;;;20.06;60.79;98903.08;108159;1251;60363;-66
2023/11/04 07:02:20;;;;;;;61.50;30.30;;;;;;;20.20;60.50;98900.16;108139;1251;73752;-67
2023/11/04 07:04:48;;;;;;;69.90;32.00;;;;;;;20.20;60.36;98904.12;108140;1255;70111;-67
2023/11/04 07:07:15;;;;;;;61.40;30.60;;;;;;;20.37;59.85;98902.63;108115;1251;72425;-67
2023/11/04 07:09:43;;;;;;;70.90;32.80;;;;;;;20.55;59.47;98899.88;108063;1251;61825;-67
2023/11/04 07:12:10;;;;;;;68.30;32.80;;;;;;;20.66;59.10;98894.12;108145;1251;60178;-65
2023/11/04 07:14:38;;;;;;;59.70;30.20;;;;;;;20.59;59.35;98895.90;108128;1251;73873;-67
2023/11/04 07:17:05;;;;;;;62.00;31.30;;;;;;;20.47;59.52;98898.60;108133;1251;70118;-68
2023/11/04 07:19:33;;;;;;;74.60;34.90;;;;;;;20.48;59.54;98906.02;108129;1253;72737;-67
2023/11/04 07:22:00;;;;;;;59.30;29.80;;;;;;;20.47;59.69;98914.14;108077;1251;61810;-68
2023/11/04 07:24:28;;;;;;;59.30;29.60;;;;;;;20.34;59.97;98911.45;108137;1251;60285;-68
2023/11/04 07:26:57;;;;;;;63.50;31.80;;;;;;;20.25;60.50;98911.58;108129;1251;74894;-67
2023/11/04 07:29:25;;;;;;;58.20;30.60;;;;;;;20.26;60.32;98905.48;108118;1251;71521;-66
2023/11/04 07:31:53;;;;;;;68.30;32.20;;;;;;;20.23;60.43;98900.36;108095;1253;74713;-67
2023/11/04 07:34:20;;;;;;;60.70;30.20;;;;;;;20.42;59.98;98897.52;108100;1251;61613;-66
2023/11/04 07:36:48;;;;;;;56.90;29.00;;;;;;;20.58;59.47;98897.89;108057;1251;60323;-66
2023/11/04 07:39:15;;;;;;;55.70;29.30;;;;;;;20.39;60.10;98899.97;108130;1251;74136;-66
2023/11/04 07:41:43;;;;;;;56.40;28.80;;;;;;;20.16;61.07;98896.27;108096;1251;69978;-66
2023/11/04 07:44:11;;;;;;;54.80;29.00;;;;;;;20.16;61.08;98890.04;108118;1251;71615;-67
2023/11/04 07:46:40;;;;;;;54.10;28.20;;;;;;;20.19;61.04;98884.77;108063;1251;60381;-67
2023/11/04 07:49:07;;;;;;;63.50;29.70;;;;;;;20.34;60.56;98895.04;108076;1257;60382;-67
2023/11/04 07:51:35;;;;;;;59.70;29.10;;;;;;;20.48;60.32;98902.14;108050;1251;72848;-67
2023/11/04 07:54:05;;;;;;;54.80;27.50;;;;;;;20.32;60.77;98904.73;108088;1251;70287;-67
2023/11/04 07:56:32;;;;;;;50.70;25.70;;;;;;;20.20;60.78;98902.48;108125;1251;72655;-67
2023/11/04 07:58:59;;;;;;;56.00;27.10;;;;;;;20.11;61.46;98901.23;108094;1251;61830;-66
2023/11/04 08:01:27;;;;;;;62.80;29.90;;;;;;;20.30;60.89;98908.59;108179;1251;60319;-67
2023/11/04 08:03:54;;;;;;;60.90;30.10;;;;;;;20.43;60.61;98895.48;108135;1252;72983;-66
2023/11/04 08:06:21;;;;;;;49.40;25.90;;;;;;;20.48;60.54;98885.70;108100;1251;70005;-66
2023/11/04 08:08:49;;;;;;;59.40;28.40;;;;;;;20.52;60.48;98877.09;108203;1251;72473;-66
2023/11/04 08:11:18;;;;;;;52.40;25.80;;;;;;;20.42;60.88;98869.92;108192;1251;61680;-67
2023/11/04 08:13:45;;;;;;;47.90;25.90;;;;;;;20.35;61.20;98875.20;108156;1251;59615;-67
2023/11/04 08:16:13;;;;;;;46.20;25.20;;;;;;;20.39;61.31;98881.26;108115;1251;73771;-66
2023/11/04 08:18:41;;;;;;;44.00;24.20;;;;;;;20.51;61.00;98879.20;108117;1251;70311;-67
2023/11/04 08:21:09;;;;;;;52.70;25.50;;;;;;;20.41;61.19;98873.76;108068;1253;71832;-66
2023/11/04 08:23:37;;;;;;;48.40;26.50;;;;;;;20.52;60.86;98874.27;108099;1256;60413;-66
2023/11/04 08:26:04;;;;;;;45.30;24.70;;;;;;;20.50;61.13;98876.77;108036;1251;61023;-66
2023/11/04 08:28:32;;;;;;;45.50;27.00;;;;;;;20.52;60.82;98876.37;108116;1253;74036;-66
2023/11/04 08:31:00;;;;;;;44.70;25.20;;;;;;;20.62;60.80;98881.31;108124;1251;70311;-67
2023/11/04 08:33:27;;;;;;;50.20;27.70;;;;;;;20.67;60.60;98891.83;108134;1253;75133;-66
2023/11/04 08:35:55;;;;;;;53.20;28.40;;;;;;;20.66;60.70;98896.03;108139;1251;62234;-66
2023/11/04 08:38:23;;;;;;;48.00;26.90;;;;;;;20.65;60.77;98890.92;108108;1251;60236;-66
2023/11/04 08:40:52;;;;;;;53.60;27.50;;;;;;;20.69;60.90;98882.77;108321;1252;72642;-67
2023/11/04 08:43:19;;;;;;;47.70;26.10;;;;;;;20.60;61.08;98876.87;108100;1257;70495;-66
2023/11/04 08:45:47;;;;;;;49.20;26.30;;;;;;;20.58;61.10;98874.94;108069;1257;72692;-67
2023/11/04 08:48:15;;;;;;;53.90;26.90;;;;;;;20.65;60.93;98871.01;108063;1251;60397;-66
2023/11/04 08:50:43;;;;;;;46.60;26.40;;;;;;;20.86;60.60;98870.87;108273;1251;60349;-66
2023/11/04 08:53:10;;;;;;;41.90;24.40;;;;;;;20.87;60.56;98864.23;108041;1251;73864;-66
2023/11/04 08:55:38;;;;;;;53.50;28.00;;;;;;;20.70;61.04;98857.31;108023;1251;69399;-66
2023/11/04 08:58:05;;;;;;;46.90;26.00;;;;;;;20.46;61.89;98853.79;108159;1256;73100;-66
2023/11/04 09:00:33;;;;;;;56.40;28.70;;;;;;;20.57;61.85;98854.50;108081;1254;63016;-66
2023/11/04 09:03:01;;;;;;;68.90;34.00;;;;;;;20.51;62.24;98853.62;108066;1253;60488;-66
2023/11/04 09:05:29;;;;;;;67.70;34.20;;;;;;;20.48;62.54;98847.60;108085;1251;72841;-66
2023/11/04 09:08:00;;;;;;;59.60;30.10;;;;;;;20.41;62.96;98842.58;108122;1251;69333;-66
2023/11/04 09:10:28;;;;;;;59.90;31.40;;;;;;;20.31;63.46;98841.54;108061;1251;72467;-66
2023/11/04 09:12:56;;;;;;;78.10;38.30;;;;;;;20.69;62.21;98844.27;108114;1253;60553;-66
2023/11/04 09:15:24;;;;;;;94.20;41.60;;;;;;;20.70;62.11;98843.90;108112;1257;60667;-67
2023/11/04 09:17:52;;;;;;;92.40;42.20;;;;;;;20.79;61.89;98846.09;108155;1251;72481;-66
2023/11/04 09:20:19;;;;;;;91.20;41.90;;;;;;;20.82;62.09;98840.64;108123;1251;70228;-67
2023/11/04 09:22:47;;;;;;;88.10;41.20;;;;;;;20.80;62.16;98835.53;108079;1251;72910;-67
2023/11/04 09:25:14;;;;;;;84.00;37.90;;;;;;;20.74;62.06;98842.11;108090;1253;60967;-66
2023/11/04 09:27:42;;;;;;;98.30;43.80;;;;;;;20.83;62.09;98837.89;108092;1251;60299;-67
2023/11/04 09:30:10;;;;;;;90.40;42.40;;;;;;;20.87;62.03;98833.21;108213;1251;73770;-66
2023/11/04 09:32:37;;;;;;;93.70;40.60;;;;;;;20.90;61.81;98823.02;108084;1257;70295;-66
2023/11/04 09:35:05;;;;;;;66.80;35.30;;;;;;;20.96;61.72;98811.77;108081;1251;71472;-66
2023/11/04 09:37:33;;;;;;;80.80;38.70;;;;;;;21.03;61.63;98803.01;108094;1253;61972;-66
2023/11/04 09:40:00;;;;;;;79.00;37.90;;;;;;;20.97;61.76;98797.91;108074;1251;60356;-66
2023/11/04 09:42:28;;;;;;;72.80;36.40;;;;;;;21.04;61.46;98790.57;108072;1257;73772;-67
2023/11/04 09:44:55;;;;;;;85.80;39.40;;;;;;;21.01;61.75;98791.25;108122;1251;69910;-66
2023/11/04 09:47:23;;;;;;;87.70;41.40;;;;;;;21.22;61.38;98782.75;108094;1251;70730;-66
2023/11/04 09:49:50;;;;;;;75.30;37.50;;;;;;;21.34;61.04;98783.44;108007;1253;60500;-66
2023/11/04 09:52:18;;;;;;;69.60;37.80;;;;;;;21.23;61.14;98786.52;108120;1251;60281;-66
2023/11/04 09:54:45;;;;;;;69.20;34.50;;;;;;;21.30;61.18;98775.98;108109;1253;72922;-66
2023/11/04 09:57:16;;;;;;;90.00;42.00;;;;;;;21.32;61.04;98773.21;108088;1251;68951;-66
2023/11/04 09:59:44;;;;;;;96.50;45.50;;;;;;;21.24;61.63;98763.80;108079;1253;71183;-66
2023/11/04 10:02:12;;;;;;;106.20;47.80;;;;;;;21.27;61.76;98765.79;107930;1253;60463;-66
2023/11/04 10:04:39;;;;;;;120.80;54.10;;;;;;;21.42;61.22;98754.42;108095;1253;59651;-66
2023/11/04 10:07:07;;;;;;;131.00;53.90;;;;;;;21.42;61.51;98748.66;108162;1251;73871;-67
2023/11/04 10:09:37;;;;;;;133.30;55.30;;;;;;;21.32;61.78;98744.16;108164;1251;70739;-67
2023/11/04 10:12:05;;;;;;;126.00;55.30;;;;;;;21.12;62.54;98747.12;108209;1251;72342;-66
2023/11/04 10:14:32;;;;;;;116.50;52.60;;;;;;;20.98;63.27;98744.07;108132;1251;60473;-67
2023/11/04 10:17:00;;;;;;;128.80;56.80;;;;;;;20.99;63.32;98750.46;108180;1251;60490;-68
2023/11/04 10:19:27;;;;;;;123.70;52.80;;;;;;;21.19;62.88;98751.27;108140;1251;73807;-67
2023/11/04 10:21:55;;;;;;;120.40;53.70;;;;;;;21.33;62.38;98748.32;108180;1256;69176;-67
2023/11/04 10:24:22;;;;;;;131.50;56.60;;;;;;;21.37;62.31;98740.63;108153;1252;74923;-67
2023/11/04 10:26:50;;;;;;;145.00;58.00;;;;;;;21.38;62.51;98740.33;108173;1251;60473;-66
2023/11/04 10:29:17;;;;;;;127.70;55.60;;;;;;;21.35;62.77;98739.76;108161;1251;62237;-67
2023/11/04 10:31:48;;;;;;;116.40;52.60;;;;;;;21.35;62.79;98737.95;108211;1251;73985;-67
2023/11/04 10:34:15;;;;;;;102.50;47.90;;;;;;;21.42;62.77;98729.60;108156;1251;70367;-66
2023/11/04 10:36:45;;;;;;;133.70;55.40;;;;;;;21.46;62.61;98729.70;108158;1257;75002;-67
2023/11/04 10:39:13;;;;;;;125.70;55.70;;;;;;;21.51;62.26;98726.55;108136;1252;62189;-67
2023/11/04 10:41:48;;;;;;;140.30;58.20;;;;;;;21.60;62.07;98727.22;108171;1251;60324;-66
2023/11/04 10:44:24;;;;;;;120.70;50.60;;;;;;;21.63;61.99;98723.35;108120;1251;72771;-67
2023/11/04 10:47:04;;;;;;;115.70;53.10;;;;;;;21.63;62.17;98715.57;108140;1251;72121;-66
2023/11/04 10:49:46;;;;;;;122.60;56.40;;;;;;;21.73;61.87;98707.24;108242;1251;71213;-66
2023/11/04 10:52:13;;;;;;;114.40;53.20;;;;;;;21.73;61.91;98697.80;108106;1253;63177;-67
2023/11/04 10:55:00;;;;;;;99.50;48.40;;;;;;;21.79;61.92;98689.44;108163;1251;62255;-66
2023/11/04 10:57:37;;;;;;;99.30;49.60;;;;;;;21.80;61.88;98685.02;108213;1256;74556;-66
2023/11/04 11:00:19;;;;;;;101.00;53.80;;;;;;;21.98;61.54;98677.98;108230;1251;70136;-67
2023/11/04 11:02:47;;;;;;;93.20;48.90;;;;;;;22.00;61.44;98674.34;108178;1251;71465;-67
2023/11/04 11:05:15;;;;;;;74.80;40.20;;;;;;;21.91;61.64;98672.99;108123;1253;60380;-66
2023/11/04 11:07:46;;;;;;;94.30;45.80;;;;;;;21.88;61.72;98679.05;108157;1251;60374;-67
2023/11/04 11:10:19;;;;;;;65.20;36.50;;;;;;;21.92;61.47;98685.91;108155;1254;73709;-66
2023/11/04 11:12:52;;;;;;;78.80;42.50;;;;;;;21.85;61.27;98690.02;108177;1253;70106;-66
2023/11/04 11:15:20;;;;;;;70.30;39.30;;;;;;;21.87;61.42;98692.04;108137;1254;71659;-66